createdAt,value
2023-04-21T00:00:12.468Z,42.3
2023-04-21T00:06:02.995Z,40.5
2023-04-21T00:11:54.505Z,41.6
2023-04-21T00:17:46.430Z,40.9
2023-04-21T00:23:40.386Z,37.8
2023-04-21T00:29:30.972Z,37.1
2023-04-21T00:35:22.230Z,38.7
2023-04-21T00:41:14.052Z,39.9
2023-04-21T00:47:06.623Z,40.9
2023-04-21T00:52:58.664Z,39.8
2023-04-21T00:58:49.198Z,40.4
2023-04-21T01:04:41.294Z,39.4
2023-04-21T01:10:32.047Z,41.5
2023-04-21T01:16:23.964Z,39.4
2023-04-21T01:22:16.768Z,43.5
2023-04-21T01:28:08.147Z,41.3
2023-04-21T01:33:59.988Z,38.9
2023-04-21T01:39:52.063Z,42.1
2023-04-21T01:45:43.423Z,45.4
2023-04-21T01:51:35.617Z,44.9
2023-04-21T01:57:27.419Z,44.6
2023-04-21T02:03:21.842Z,44.3
2023-04-21T02:09:11.626Z,45.5
2023-04-21T02:15:03.927Z,45.3
2023-04-21T02:20:56.388Z,44.2
2023-04-21T02:26:49.322Z,41.4
2023-04-21T02:32:43.885Z,44.2
2023-04-21T02:38:38.844Z,44.5
2023-04-21T02:44:30.412Z,43.4
2023-04-21T02:50:21.587Z,42.2
2023-04-21T02:56:14.157Z,41.2
2023-04-21T03:02:07.353Z,43.3
2023-04-21T03:08:00.034Z,44.3
2023-04-21T03:13:52.161Z,48.3
2023-04-21T03:19:43.887Z,51.8
2023-04-21T03:25:35.697Z,56.2
2023-04-21T03:31:26.545Z,50.2
2023-04-21T03:37:19.148Z,50.7
2023-04-21T03:43:15.813Z,45.1
2023-04-21T03:49:09.591Z,46.8
2023-04-21T03:55:01.247Z,42.9
2023-04-21T04:00:54.961Z,41.6
2023-04-21T04:06:46.404Z,42.4
2023-04-21T04:12:38.056Z,41.3
2023-04-21T04:18:29.614Z,37.7
2023-04-21T04:24:21.109Z,37.5
2023-04-21T04:30:13.044Z,41.2
2023-04-21T04:36:04.499Z,46.1
2023-04-21T04:41:57.442Z,46
2023-04-21T04:47:49.619Z,44.4
2023-04-21T04:53:41.299Z,45.8
2023-04-21T04:59:35.796Z,44.2
2023-04-21T05:05:27.635Z,50
2023-04-21T05:11:19.523Z,57.6
2023-04-21T05:17:11.363Z,58.6
2023-04-21T05:23:03.429Z,55.7
2023-04-21T05:28:53.910Z,56.4
2023-04-21T05:34:43.766Z,61.7
2023-04-21T05:40:33.335Z,61.2
2023-04-21T05:46:25.197Z,63.9
2023-04-21T05:52:17.607Z,62.7
2023-04-21T05:58:08.455Z,58.5
2023-04-21T06:04:01.502Z,58
2023-04-21T06:09:53.623Z,55.2
2023-04-21T06:15:45.492Z,53.8
2023-04-21T06:21:36.585Z,60.3
2023-04-21T06:27:28.965Z,54.9
2023-04-21T06:33:20.856Z,53.4
2023-04-21T06:39:12.657Z,53.4
2023-04-21T06:45:04.273Z,46.5
2023-04-21T06:50:56.235Z,47.3
2023-04-21T06:56:48.298Z,44
2023-04-21T07:02:41.203Z,47
2023-04-21T07:08:33.418Z,42.7
2023-04-21T07:14:26.428Z,44.1
2023-04-21T07:20:18.120Z,40.4
2023-04-21T07:26:13.372Z,39.4
2023-04-21T07:32:06.175Z,40
2023-04-21T07:37:58.828Z,38.9
2023-04-21T07:43:54.658Z,36.8
2023-04-21T07:49:46.173Z,40.2
2023-04-21T07:55:38.506Z,39
2023-04-21T08:01:29.032Z,34.1
2023-04-21T08:07:20.581Z,36
2023-04-21T08:13:14.340Z,34.1
2023-04-21T08:19:03.901Z,31.4
2023-04-21T08:24:53.621Z,32.3
2023-04-21T08:30:43.335Z,29.9
2023-04-21T08:36:38.722Z,30.7
2023-04-21T08:42:29.019Z,31
2023-04-21T08:48:20.535Z,29.1
2023-04-21T08:54:11.714Z,30.7
2023-04-21T09:00:10.567Z,30.3
2023-04-21T09:06:05.447Z,29.5
2023-04-21T09:12:00.366Z,28.6
2023-04-21T09:17:55.895Z,27.7
2023-04-21T09:23:51.817Z,28.3
2023-04-21T09:29:45.784Z,27.4
2023-04-21T09:35:38.481Z,26.2
2023-04-21T09:41:32.029Z,28.4
2023-04-21T09:47:27.583Z,29.3
2023-04-21T09:53:21.081Z,25.7
2023-04-21T09:59:14.858Z,24.1
2023-04-21T10:05:08.167Z,24.9
2023-04-21T10:11:01.984Z,23.2
2023-04-21T10:16:54.659Z,23.6
2023-04-21T10:22:47.753Z,21.5
2023-04-21T10:29:17.435Z,20.2
2023-04-21T10:35:35.152Z,18.9
2023-04-21T11:37:15.833Z,10.2
2023-04-21T15:01:17.785Z,8.9
2023-04-21T15:07:08.734Z,10
2023-04-21T15:13:00.515Z,8.1
2023-04-21T15:18:54.181Z,21.3
2023-04-21T15:24:45.173Z,9.2
2023-04-21T15:30:49.006Z,10.3
2023-04-21T15:36:44.547Z,8.8
2023-04-21T15:42:42.815Z,7.9
2023-04-21T15:48:34.690Z,7.9
2023-04-21T15:54:26.631Z,6.3
2023-04-21T16:00:20.411Z,6.3
2023-04-21T16:06:31.518Z,8.1
2023-04-21T16:12:25.514Z,7.6
2023-04-21T16:18:17.532Z,6.6
2023-04-21T16:24:15.809Z,7
2023-04-21T16:30:10.355Z,6.7
2023-04-21T16:36:18.648Z,5
2023-04-21T16:42:16.049Z,6.6
2023-04-21T16:48:10.092Z,6.3
2023-04-21T16:54:04.101Z,6.6
2023-04-21T16:59:55.474Z,6.4
2023-04-21T17:05:46.827Z,5.6
2023-04-21T17:11:41.989Z,7.2
2023-04-21T17:17:32.883Z,7.8
2023-04-21T17:23:23.649Z,6.7
2023-04-21T17:29:17.090Z,7.2
2023-04-21T17:35:07.311Z,8.1
2023-04-21T17:40:56.567Z,8.3
2023-04-21T17:46:47.347Z,7.2
2023-04-21T17:52:40.979Z,7.7
2023-04-21T17:58:31.261Z,7.1
2023-04-21T18:04:23.910Z,10
2023-04-21T18:10:14.680Z,7
2023-04-21T18:16:07.820Z,8.4
2023-04-21T18:22:01.948Z,10.8
2023-04-21T18:27:53.776Z,9.8
2023-04-21T18:33:44.439Z,6.1
2023-04-21T18:39:36.865Z,4.8
2023-04-21T18:45:28.837Z,3.9
2023-04-21T18:51:20.462Z,5
2023-04-21T18:57:12.622Z,6.4
2023-04-21T19:03:05.405Z,6.1
2023-04-21T19:08:59.935Z,6.5
2023-04-21T19:14:54.850Z,6.8
2023-04-21T19:20:45.979Z,6.6
2023-04-21T19:26:38.751Z,4.1
2023-04-21T19:32:29.772Z,4.3
2023-04-21T19:38:22.185Z,5.2
2023-04-21T19:50:29.442Z,7.3
2023-04-21T19:56:26.460Z,7.6
2023-04-21T20:02:33.552Z,11
2023-04-21T20:08:30.890Z,7.6
2023-04-21T20:14:24.863Z,6.3
2023-04-21T20:20:17.275Z,7.1
2023-04-21T20:26:11.852Z,6.8
2023-04-21T20:32:04.856Z,6
2023-04-21T20:38:03.522Z,7.1
2023-04-21T20:44:01.477Z,5.9
2023-04-21T20:49:57.504Z,6.4
2023-04-21T21:03:13.407Z,5.6
2023-04-21T21:09:18.606Z,6.1
2023-04-21T21:15:11.853Z,6.9
2023-04-21T21:21:20.380Z,6.3
2023-04-21T21:27:20.086Z,6.2
2023-04-21T21:33:11.358Z,6.4
2023-04-21T21:39:03.615Z,6.1
2023-04-21T21:44:55.117Z,7.4
2023-04-21T21:50:57.686Z,8.3
2023-04-21T21:56:52.990Z,6.9
2023-04-21T22:02:59.958Z,6.2
2023-04-21T22:14:58.681Z,7.1
2023-04-21T22:20:55.073Z,6.7
2023-04-21T22:27:01.776Z,6.9
2023-04-21T22:33:03.716Z,8.2
2023-04-21T22:34:48.635Z,7.4
2023-04-21T22:40:44.996Z,7.9
2023-04-21T22:46:59.057Z,7.3
2023-04-21T22:59:16.726Z,7.6
2023-04-21T23:11:48.311Z,10.2
2023-04-21T23:18:07.061Z,8.5
2023-04-21T23:37:26.312Z,7.7
2023-04-21T23:44:38.180Z,7.7
2023-04-21T23:50:46.865Z,7.7
2023-04-21T23:56:56.932Z,8.9
